7N0

New Orleans Downtown Heliport

New Orleans, Louisiana, USA
METAR K7N0 210256Z AUTO 00000KT 10SM CLR 17/06 A3020 RMK AO2 SLP228 T01720061 53009
Observed Flight Rules
Apr-21 @ 02:56 UTC (59 minutes ago) Visual Flight Rules
Visibility Clouds
10 miles
  • Clear skies
Temperatures Readings
Current 17°C / 63°F
Dewpoint 6°C / 43°F
Humidity 49%
Altimeter 30.2" Hg
Pressure 1022.8 hPa
Elevation 0
METAR K7N0 210256Z AUTO 00000KT 10SM CLR 17/06 A3020 RMK AO2 SLP228 T01720061 53009
Observed Flight Rules
Apr-21 @ 02:56 UTC
(59 minutes ago)
VFR
Clouds
  • Clear skies
Temperature Dewpoint
17°C / 63°F 6°C / 43°F
Humidity Altimeter Pressure
49% 30.2" Hg 1022.8 hPa